Glasgow, MT

5:54 PM MDT on August 27, 2014 (GMT -0600)
nashua | Change Station
CLOSE
Current Station
Personal Weather Station
Location: Nashua, MT
Elevation: 2156 ft
Nearby Weather Stations
Active Advisory: Flood Warning

Elev 2156 ft 48.11 °N, 106.45 °W | Updated 53 minutes ago

Clear
Clear
85.8 °F
Feels Like 83 °F
N
12.6
Wind Variable Wind from SW
Gusts 16.5 mph

Today
High -- | Low -- °F
--% Chance of Precip.
Yesterday
High -- | Low -- °F
Precip. -- in
6:16 AM 7:57 PM
Waxing Crescent, 5% visible
Pressure 29.89 in
Visibility 10.0 miles
Clouds Clear
Heat Index 83 °F
Dew Point 40 °F
Humidity 20%
Rainfall 0.00 in
Snow Depth Not available.
UV 3 out of 12
Pollen 9.50 out of 12
Air Quality Not available.
Flu Activity Not available.
METAR KGGW 272253Z AUTO 25011KT 10SM CLR 30/08 A2991 RMK AO2 SLP121 T03000083

More Conditions Fewer Conditions

Pressure 29.89 in
Visibility 10.0 miles
Clouds Clear
Heat Index 83 °F
Dew Point 40 °F
Humidity 20%
Rainfall 0.00 in
Snow Depth Not available.
UV 3 out of 12
Pollen 9.50 out of 12
Air Quality Not available.
Flu Activity Not available.
METAR KGGW 272253Z AUTO 25011KT 10SM CLR 30/08 A2991 RMK AO2 SLP121 T03000083

More Conditions Fewer Conditions

10-Day Weather Forecast

Almanac

Astronomy

Aug. 27, 2014 Rise Set
Actual Time 6:16 AM MDT 7:57 PM MDT
Civil Twilight 5:44 AM MDT 8:29 PM MDT
Nautical Twilight 5:03 AM MDT 9:09 PM MDT
Astronomical Twilight 4:19 AM MDT 9:53 PM MDT
Moon 8:28 AM MDT 8:36 PM MDT
Length of Visible Light 14h 45m
Length of Day
13h 40m
Tomorrow will be 3m 21s shorter.
Waxing Crescent, 5% of the Moon is Illuminated
Today
Waxing Crescent
Sep 2
First Quarter
Sep 8
Full
Sep 15
Last Quarter
Sep 24
New

Today's Extremes

State Highs State Lows

Community

WunderPhotos

Upload Photos

1,747,816 photos uploaded!

Nearby

Snow Depth

Station Depth Elevation
Crystal Lake 0 in 6050 ft
Porcupine 0 in 6500 ft
Sacajawea 0 in 6550 ft
White Mill 1 in 8700 ft
Monument Peak 0 in 8850 ft

Earthquake Activity

City Distance Mag. Time & Date
No recent earthquake activity has been reported nearby.
Minimum magnitude displayed is 2.5.

Coastal Water Temperatures

Place Temperature
No Stations Reporting

Nearby Weather Stations